createdAt,value
2023-04-07T00:00:43.157Z,52.74
2023-04-07T00:03:11.734Z,52.90
2023-04-07T00:05:40.000Z,52.63
2023-04-07T00:08:07.903Z,54.35
2023-04-07T00:10:36.047Z,53.90
2023-04-07T00:13:04.168Z,55.10
2023-04-07T00:15:32.257Z,56.58
2023-04-07T00:18:00.142Z,56.77
2023-04-07T00:20:30.645Z,56.05
2023-04-07T00:22:58.618Z,56.97
2023-04-07T00:25:26.613Z,56.29
2023-04-07T00:27:54.645Z,58.73
2023-04-07T00:30:22.564Z,57.13
2023-04-07T00:32:51.966Z,57.82
2023-04-07T00:35:19.788Z,57.53
2023-04-07T00:37:48.239Z,57.35
2023-04-07T00:40:17.713Z,57.67
2023-04-07T00:42:45.609Z,59.15
2023-04-07T00:45:13.687Z,59.07
2023-04-07T00:47:41.919Z,59.91
2023-04-07T00:50:10.597Z,59.51
2023-04-07T00:52:38.519Z,59.93
2023-04-07T00:55:06.895Z,59.38
2023-04-07T00:57:34.816Z,59.95
2023-04-07T01:00:02.844Z,59.78
2023-04-07T01:02:42.026Z,60.93
2023-04-07T01:05:36.809Z,61.14
2023-04-07T01:08:21.219Z,61.34
2023-04-07T01:10:57.333Z,61.53
2023-04-07T01:13:33.703Z,62.11
2023-04-07T01:16:31.644Z,62.59
2023-04-07T01:19:13.935Z,62.27
2023-04-07T01:21:47.529Z,62.47
2023-04-07T01:24:34.030Z,63.26
2023-04-07T01:27:16.965Z,62.10
2023-04-07T01:29:48.491Z,63.33
2023-04-07T01:32:20.599Z,61.97
2023-04-07T01:34:51.180Z,61.65
2023-04-07T01:37:21.084Z,63.49
2023-04-07T01:39:49.139Z,62.42
2023-04-07T01:42:18.832Z,63.85
2023-04-07T01:44:48.822Z,62.80
2023-04-07T01:47:17.122Z,63.28
2023-04-07T01:49:47.366Z,63.10
2023-04-07T01:52:18.816Z,62.96
2023-04-07T01:54:47.430Z,63.69
2023-04-07T01:57:15.660Z,64.09
2023-04-07T01:59:44.531Z,63.44
2023-04-07T02:02:13.181Z,64.73
2023-04-07T02:04:56.503Z,65.08
2023-04-07T02:07:43.197Z,64.52
2023-04-07T02:10:13.738Z,64.18
2023-04-07T02:12:45.927Z,65.25
2023-04-07T02:15:19.001Z,63.88
2023-04-07T02:18:00.389Z,64.39
2023-04-07T02:20:29.970Z,65.00
2023-04-07T02:22:57.784Z,65.29
2023-04-07T02:25:28.484Z,64.89
2023-04-07T02:27:59.144Z,64.94
2023-04-07T02:30:28.210Z,65.25
2023-04-07T02:32:58.407Z,65.58
2023-04-07T02:35:26.610Z,64.90
2023-04-07T02:37:54.707Z,64.78
2023-04-07T02:40:22.764Z,66.04
2023-04-07T02:42:54.526Z,65.79
2023-04-07T02:45:24.057Z,66.19
2023-04-07T02:47:52.079Z,66.34
2023-04-07T02:50:20.335Z,65.87
2023-04-07T02:56:06.817Z,66.77
2023-04-07T02:58:35.204Z,66.22
2023-04-07T03:01:03.313Z,66.42
2023-04-07T03:03:33.473Z,67.05
2023-04-07T03:06:10.743Z,66.60
2023-04-07T03:08:47.873Z,66.67
2023-04-07T03:11:16.534Z,67.99
2023-04-07T03:13:44.618Z,67.20
2023-04-07T03:16:13.179Z,66.90
2023-04-07T03:18:54.553Z,67.77
2023-04-07T03:21:23.788Z,66.72
2023-04-07T03:23:51.905Z,65.64
2023-04-07T03:26:19.932Z,66.15
2023-04-07T03:28:47.921Z,67.30
2023-04-07T03:31:16.721Z,67.40
2023-04-07T03:33:45.501Z,68.29
2023-04-07T03:36:14.240Z,67.60
2023-04-07T03:38:42.352Z,67.22
2023-04-07T03:41:10.708Z,69.14
2023-04-07T03:43:38.708Z,68.63
2023-04-07T03:46:06.849Z,68.04
2023-04-07T03:48:35.632Z,68.07
2023-04-07T03:51:09.920Z,68.50
2023-04-07T03:53:39.082Z,68.52
2023-04-07T03:56:20.441Z,68.98
2023-04-07T03:58:51.442Z,69.21
2023-04-07T04:01:27.664Z,69.21
2023-04-07T04:03:57.836Z,69.23
2023-04-07T04:06:28.570Z,68.77
2023-04-07T04:09:04.743Z,68.64
2023-04-07T04:11:36.738Z,69.49
2023-04-07T04:14:08.937Z,69.40
2023-04-07T04:16:38.420Z,69.80
2023-04-07T04:19:14.965Z,68.58
2023-04-07T04:21:43.530Z,68.99
2023-04-07T04:24:11.808Z,68.98
2023-04-07T04:26:40.164Z,69.28
2023-04-07T04:29:13.063Z,68.55
2023-04-07T04:31:43.504Z,67.92
2023-04-07T04:34:12.382Z,66.96
2023-04-07T04:36:43.129Z,67.65
2023-04-07T04:39:12.188Z,68.32
2023-04-07T04:41:41.207Z,68.32
2023-04-07T04:44:10.824Z,67.65
2023-04-07T04:46:41.381Z,66.58
2023-04-07T04:49:09.881Z,65.76
2023-04-07T04:51:37.846Z,65.38
2023-04-07T04:54:13.747Z,65.71
2023-04-07T04:56:43.031Z,66.52
2023-04-07T04:59:11.816Z,67.04
2023-04-07T05:02:00.323Z,65.03
2023-04-07T05:04:29.977Z,64.79
2023-04-07T05:07:19.519Z,66.40
2023-04-07T05:09:47.559Z,65.06
2023-04-07T05:12:17.345Z,65.62
2023-04-07T05:14:50.308Z,64.33
2023-04-07T05:17:19.232Z,64.00
2023-04-07T05:19:47.300Z,63.82
2023-04-07T05:22:25.088Z,63.60
2023-04-07T05:24:53.396Z,62.04
2023-04-07T05:27:21.360Z,62.03
2023-04-07T05:29:53.576Z,60.71
2023-04-07T05:32:29.083Z,59.43
2023-04-07T05:34:59.042Z,59.39
2023-04-07T05:37:39.149Z,59.45
2023-04-07T05:40:08.735Z,58.01
2023-04-07T05:42:37.032Z,58.14
2023-04-07T05:45:05.682Z,58.45
2023-04-07T05:47:34.641Z,57.83
2023-04-07T05:50:02.626Z,57.05
2023-04-07T05:52:31.788Z,57.17
2023-04-07T05:55:09.780Z,56.83
2023-04-07T05:57:38.806Z,57.53
2023-04-07T06:00:08.630Z,56.30
2023-04-07T06:02:42.393Z,56.09
2023-04-07T06:05:17.521Z,56.92
2023-04-07T06:07:46.944Z,56.54
2023-04-07T06:10:15.922Z,55.82
2023-04-07T06:12:43.907Z,55.25
2023-04-07T06:15:12.264Z,55.27
2023-04-07T06:17:40.302Z,54.81
2023-04-07T06:20:11.534Z,53.94
2023-04-07T06:22:39.756Z,47.05
2023-04-07T06:25:08.875Z,40.48
2023-04-07T06:27:36.955Z,34.51
2023-04-07T06:30:05.968Z,29.12
2023-04-07T06:32:34.421Z,27.73
2023-04-07T06:35:02.551Z,26.21
2023-04-07T06:37:31.669Z,24.92
2023-04-07T06:39:59.640Z,22.42
2023-04-07T06:42:27.516Z,21.83
2023-04-07T06:45:21.935Z,19.03
2023-04-07T06:47:50.777Z,20.85
2023-04-07T06:50:21.065Z,19.46
2023-04-07T06:52:49.027Z,20.23
2023-04-07T06:55:17.155Z,21.44
2023-04-07T06:57:45.095Z,19.33
2023-04-07T07:00:13.303Z,20.79
2023-04-07T07:02:41.373Z,21.69
2023-04-07T07:05:09.484Z,23.37
2023-04-07T07:07:38.200Z,21.43
2023-04-07T07:10:09.350Z,20.33
2023-04-07T07:12:37.847Z,20.63
2023-04-07T07:15:06.660Z,19.80
2023-04-07T07:17:35.286Z,18.16
2023-04-07T07:20:03.760Z,18.27
2023-04-07T07:22:32.033Z,17.78
2023-04-07T07:25:00.011Z,16.96
2023-04-07T07:27:28.270Z,16.35
2023-04-07T07:29:56.709Z,16.98
2023-04-07T07:32:25.621Z,17.57
2023-04-07T07:34:53.980Z,16.81
2023-04-07T07:37:22.498Z,17.10
2023-04-07T07:39:50.440Z,17.22
2023-04-07T07:42:18.682Z,19.29
2023-04-07T07:44:46.680Z,19.14
2023-04-07T07:47:14.722Z,21.65
2023-04-07T07:49:43.231Z,21.36
2023-04-07T07:52:11.452Z,23.33
2023-04-07T07:54:39.539Z,24.45
2023-04-07T07:57:07.682Z,25.85
2023-04-07T07:59:35.878Z,27.08
2023-04-07T08:02:03.919Z,27.24
2023-04-07T08:04:31.955Z,28.46
2023-04-07T08:06:59.915Z,28.93
2023-04-07T08:09:27.960Z,29.30
2023-04-07T08:11:55.898Z,28.67
2023-04-07T08:14:24.374Z,28.94
2023-04-07T08:16:52.260Z,28.76
2023-04-07T08:19:20.255Z,28.86
2023-04-07T08:21:48.295Z,29.73
2023-04-07T08:24:16.720Z,28.22
2023-04-07T08:26:45.818Z,27.05
2023-04-07T08:29:13.966Z,28.76
2023-04-07T08:31:42.052Z,29.04
2023-04-07T08:34:10.143Z,28.71
2023-04-07T08:36:38.176Z,29.38
2023-04-07T08:39:06.605Z,29.35
2023-04-07T08:41:41.211Z,29.87
2023-04-07T08:44:10.761Z,30.46
2023-04-07T08:46:40.171Z,30.45
2023-04-07T08:49:10.819Z,29.97
2023-04-07T08:51:43.925Z,30.10
2023-04-07T08:54:14.337Z,29.16
2023-04-07T08:56:43.700Z,27.93
2023-04-07T08:59:13.533Z,25.37
2023-04-07T09:01:42.261Z,24.91
2023-04-07T09:04:11.265Z,25.10
2023-04-07T09:06:39.552Z,24.68
2023-04-07T09:09:07.705Z,24.89
2023-04-07T09:11:40.510Z,26.05
2023-04-07T09:14:08.476Z,27.20
2023-04-07T09:16:36.537Z,28.05
2023-04-07T09:19:04.719Z,29.07
2023-04-07T09:21:51.699Z,30.58
2023-04-07T09:24:24.052Z,30.84
2023-04-07T09:27:09.421Z,32.16
2023-04-07T09:29:38.005Z,31.43
2023-04-07T09:32:06.221Z,32.52
2023-04-07T09:34:38.477Z,32.81
2023-04-07T09:37:09.867Z,32.68
2023-04-07T09:39:52.456Z,33.84
2023-04-07T09:42:21.773Z,32.43
2023-04-07T09:44:49.706Z,32.38
2023-04-07T09:47:19.083Z,31.87
2023-04-07T09:49:56.268Z,32.24
2023-04-07T09:52:47.567Z,32.63
2023-04-07T09:55:16.308Z,33.04
2023-04-07T09:57:45.741Z,32.92
2023-04-07T10:00:15.451Z,31.92
2023-04-07T10:02:44.647Z,32.64
2023-04-07T10:05:13.129Z,33.93
2023-04-07T10:07:42.859Z,32.61
2023-04-07T10:10:11.722Z,33.16
2023-04-07T10:12:41.688Z,32.64
2023-04-07T10:15:16.077Z,32.75
2023-04-07T10:17:50.222Z,32.89
2023-04-07T10:20:21.410Z,33.72
2023-04-07T10:22:51.670Z,34.28
2023-04-07T10:25:22.755Z,33.02
2023-04-07T10:27:56.578Z,33.24
2023-04-07T10:30:30.337Z,33.80
2023-04-07T10:32:59.163Z,34.99
2023-04-07T10:35:29.026Z,33.22
2023-04-07T10:38:10.758Z,33.78
2023-04-07T10:40:39.228Z,34.24
2023-04-07T10:43:12.140Z,33.34
2023-04-07T10:45:49.083Z,34.21
2023-04-07T10:48:18.527Z,35.97
2023-04-07T10:51:08.259Z,35.38
2023-04-07T10:53:37.264Z,36.03
2023-04-07T10:56:06.065Z,35.05
2023-04-07T10:58:34.331Z,35.83
2023-04-07T11:01:04.975Z,36.09
2023-04-07T11:03:38.067Z,35.99
2023-04-07T11:06:08.660Z,34.84
2023-04-07T11:08:49.193Z,36.57
2023-04-07T11:11:35.739Z,35.44
2023-04-07T11:14:05.294Z,35.92
2023-04-07T11:16:46.730Z,35.80
2023-04-07T11:19:14.786Z,34.58
2023-04-07T11:21:42.620Z,34.63
2023-04-07T11:24:10.718Z,34.21
2023-04-07T11:26:40.749Z,33.00
2023-04-07T11:29:08.898Z,33.59
2023-04-07T11:31:37.097Z,35.05
2023-04-07T11:34:05.977Z,33.34
2023-04-07T11:36:36.176Z,32.66
2023-04-07T11:39:04.320Z,33.23
2023-04-07T11:41:33.819Z,34.18
2023-04-07T11:44:09.395Z,34.62
2023-04-07T11:46:53.956Z,35.38
2023-04-07T11:49:24.028Z,35.15
2023-04-07T11:52:07.514Z,35.81
2023-04-07T11:54:48.207Z,34.74
2023-04-07T11:57:27.900Z,32.80
2023-04-07T12:00:12.547Z,34.89
2023-04-07T12:02:41.099Z,34.24
2023-04-07T12:05:10.969Z,33.79
2023-04-07T12:07:42.227Z,35.44
2023-04-07T12:10:20.632Z,34.60
2023-04-07T12:12:49.472Z,36.16
2023-04-07T12:15:17.436Z,36.43
2023-04-07T12:17:47.797Z,34.95
2023-04-07T12:20:16.867Z,35.56
2023-04-07T12:22:44.964Z,34.50
2023-04-07T12:25:13.204Z,36.32
2023-04-07T12:27:43.691Z,35.62
2023-04-07T12:30:13.810Z,34.99
2023-04-07T12:32:42.139Z,34.68
2023-04-07T12:35:10.113Z,34.75
2023-04-07T12:37:38.015Z,36.44
2023-04-07T12:40:07.017Z,36.08
2023-04-07T12:42:34.988Z,36.62
2023-04-07T12:45:03.564Z,37.35
2023-04-07T12:47:32.421Z,36.86
2023-04-07T12:50:00.819Z,37.63
2023-04-07T12:52:29.080Z,38.07
2023-04-07T12:54:57.571Z,37.78
2023-04-07T12:57:25.797Z,37.57
2023-04-07T12:59:54.655Z,38.52
2023-04-07T13:02:22.850Z,39.19
2023-04-07T13:04:50.908Z,39.33
2023-04-07T13:07:18.774Z,39.26
2023-04-07T13:09:46.876Z,39.51
2023-04-07T13:12:14.868Z,38.63
2023-04-07T13:14:52.972Z,39.73
2023-04-07T13:17:26.032Z,39.50
2023-04-07T13:19:54.326Z,40.45
2023-04-07T13:22:24.516Z,40.18
2023-04-07T13:24:52.869Z,40.22
2023-04-07T13:27:21.575Z,38.55
2023-04-07T13:29:49.519Z,39.05
2023-04-07T13:32:17.878Z,40.62
2023-04-07T13:34:46.910Z,39.06
2023-04-07T13:37:15.199Z,39.82
2023-04-07T13:39:43.029Z,40.36
2023-04-07T13:42:12.661Z,40.03
2023-04-07T13:44:44.023Z,39.35
2023-04-07T13:47:12.462Z,39.34
2023-04-07T13:49:40.799Z,39.19
2023-04-07T13:52:09.435Z,40.83
2023-04-07T13:54:38.481Z,40.79
2023-04-07T13:57:06.595Z,40.51
2023-04-07T13:59:34.609Z,41.08
2023-04-07T14:02:03.425Z,41.50
2023-04-07T14:04:31.536Z,41.16
2023-04-07T14:06:59.932Z,41.45
2023-04-07T14:09:28.317Z,42.40
2023-04-07T14:11:57.795Z,42.40
2023-04-07T14:14:26.051Z,42.57
2023-04-07T14:16:55.012Z,42.90
2023-04-07T14:19:24.073Z,42.45
2023-04-07T14:21:52.111Z,43.01
2023-04-07T14:24:20.044Z,43.01
2023-04-07T14:26:47.985Z,43.79
2023-04-07T14:29:16.079Z,44.39
2023-04-07T14:31:45.492Z,44.73
2023-04-07T14:34:13.799Z,44.31
2023-04-07T14:36:41.754Z,46.01
2023-04-07T14:39:12.789Z,44.54
2023-04-07T14:41:41.170Z,45.07
2023-04-07T14:44:09.706Z,45.88
2023-04-07T14:46:37.950Z,46.71
2023-04-07T14:49:06.152Z,45.47
2023-04-07T14:51:34.983Z,46.61
2023-04-07T14:54:03.477Z,46.55
2023-04-07T14:56:31.488Z,47.39
2023-04-07T14:58:59.722Z,48.14
2023-04-07T15:01:28.636Z,48.92
2023-04-07T15:03:58.710Z,48.45
2023-04-07T15:06:27.500Z,49.58
2023-04-07T15:08:55.925Z,50.28
2023-04-07T15:11:24.084Z,52.23
2023-04-07T15:13:52.145Z,51.31
2023-04-07T15:16:20.796Z,51.20
2023-04-07T15:18:51.277Z,51.76
2023-04-07T15:21:19.858Z,51.74
2023-04-07T15:23:48.024Z,51.61
2023-04-07T15:26:16.348Z,51.24
2023-04-07T15:28:45.003Z,53.08
2023-04-07T15:31:13.002Z,52.40
2023-04-07T15:33:41.414Z,52.77
2023-04-07T15:36:09.745Z,53.40
2023-04-07T15:38:39.727Z,52.78
2023-04-07T15:41:08.410Z,52.82
2023-04-07T15:43:37.949Z,52.92
2023-04-07T15:46:06.572Z,53.39
2023-04-07T15:48:35.175Z,53.82
2023-04-07T15:51:03.737Z,53.02
2023-04-07T15:53:32.138Z,54.62
2023-04-07T15:56:00.676Z,53.75
2023-04-07T15:58:29.136Z,53.21
2023-04-07T16:00:57.922Z,54.23
2023-04-07T16:03:28.490Z,54.79
2023-04-07T16:05:57.420Z,54.34
2023-04-07T16:08:25.722Z,53.93
2023-04-07T16:10:54.369Z,54.14
2023-04-07T16:13:22.684Z,54.71
2023-04-07T16:15:55.265Z,54.42
2023-04-07T16:18:23.611Z,55.09
2023-04-07T16:20:52.165Z,55.56
2023-04-07T16:23:20.352Z,54.93
2023-04-07T16:25:48.835Z,55.13
2023-04-07T16:28:17.303Z,54.88
2023-04-07T16:30:45.948Z,55.75
2023-04-07T16:33:14.336Z,55.73
2023-04-07T16:35:42.936Z,55.88
2023-04-07T16:38:11.832Z,54.66
2023-04-07T16:40:40.744Z,55.24
2023-04-07T16:43:09.554Z,55.23
2023-04-07T16:45:38.256Z,53.80
2023-04-07T16:48:06.934Z,55.03
2023-04-07T16:50:35.899Z,55.22
2023-04-07T16:53:04.208Z,54.49
2023-04-07T16:55:36.786Z,54.11
2023-04-07T16:58:05.244Z,54.05
2023-04-07T17:00:33.795Z,55.01
2023-04-07T17:03:02.483Z,54.37
2023-04-07T17:05:31.315Z,54.49
2023-04-07T17:07:59.865Z,53.88
2023-04-07T17:10:28.446Z,54.43
2023-04-07T17:12:57.062Z,54.66
2023-04-07T17:15:25.440Z,55.00
2023-04-07T17:17:54.084Z,54.69
2023-04-07T17:20:23.048Z,54.90
2023-04-07T17:22:51.843Z,54.75
2023-04-07T17:25:20.105Z,54.85
2023-04-07T17:27:48.752Z,54.42
2023-04-07T17:30:18.561Z,55.96
2023-04-07T17:32:47.165Z,56.06
2023-04-07T17:35:16.301Z,56.26
2023-04-07T17:37:44.691Z,56.41
2023-04-07T17:40:13.342Z,55.89
2023-04-07T17:42:43.268Z,56.76
2023-04-07T17:45:12.185Z,57.30
2023-04-07T17:47:40.946Z,57.70
2023-04-07T17:50:10.209Z,57.10
2023-04-07T17:52:39.103Z,56.98
2023-04-07T17:55:08.853Z,57.62
2023-04-07T17:57:37.579Z,59.12
2023-04-07T18:00:06.910Z,58.57
2023-04-07T18:02:42.009Z,58.75
2023-04-07T18:05:11.095Z,58.91
2023-04-07T18:07:39.495Z,58.92
2023-04-07T18:10:08.593Z,58.75
2023-04-07T18:12:36.982Z,58.57
2023-04-07T18:15:06.303Z,58.66
2023-04-07T18:17:34.858Z,58.66
2023-04-07T18:20:04.493Z,58.46
2023-04-07T18:22:33.306Z,58.75
2023-04-07T18:25:01.943Z,57.31
2023-04-07T18:27:30.349Z,59.41
2023-04-07T18:29:58.731Z,59.82
2023-04-07T18:32:27.220Z,59.38
2023-04-07T18:34:56.168Z,59.35
2023-04-07T18:37:24.841Z,58.99
2023-04-07T18:39:54.131Z,59.69
2023-04-07T18:42:22.689Z,59.25
2023-04-07T18:44:51.278Z,59.51
2023-04-07T18:47:19.900Z,60.49
2023-04-07T18:49:48.909Z,60.83
2023-04-07T18:52:17.289Z,61.15
2023-04-07T18:54:45.898Z,61.75
2023-04-07T18:57:14.516Z,61.51
2023-04-07T18:59:44.035Z,61.19
2023-04-07T19:02:12.785Z,61.78
2023-04-07T19:04:41.589Z,62.07
2023-04-07T19:07:10.046Z,62.52
2023-04-07T19:09:38.524Z,62.30
2023-04-07T19:12:07.009Z,62.67
2023-04-07T19:14:35.788Z,63.29
2023-04-07T19:17:04.208Z,62.72
2023-04-07T19:19:32.933Z,62.92
2023-04-07T19:22:01.377Z,63.00
2023-04-07T19:24:29.952Z,62.98
2023-04-07T19:26:58.413Z,63.58
2023-04-07T19:29:28.550Z,63.90
2023-04-07T19:31:57.781Z,63.64
2023-04-07T19:34:25.957Z,64.02
2023-04-07T19:36:54.251Z,63.80
2023-04-07T19:39:22.717Z,64.18
2023-04-07T19:41:51.323Z,64.66
2023-04-07T19:44:19.730Z,64.76
2023-04-07T19:46:49.319Z,64.41
2023-04-07T19:49:17.853Z,64.93
2023-04-07T19:51:48.463Z,64.70
2023-04-07T19:54:17.966Z,64.73
2023-04-07T19:56:46.474Z,65.47
2023-04-07T19:59:14.576Z,65.03
2023-04-07T20:01:43.048Z,65.43
2023-04-07T20:04:11.202Z,66.28
2023-04-07T20:06:40.881Z,65.77
2023-04-07T20:09:09.372Z,65.36
2023-04-07T20:11:37.714Z,65.31
2023-04-07T20:14:06.213Z,64.61
2023-04-07T20:16:35.265Z,65.05
2023-04-07T20:19:04.548Z,65.56
2023-04-07T20:21:32.654Z,65.49
2023-04-07T20:24:00.520Z,65.32
2023-04-07T20:26:29.040Z,65.12
2023-04-07T20:28:57.300Z,64.49
2023-04-07T20:31:25.651Z,64.50
2023-04-07T20:33:53.796Z,64.76
2023-04-07T20:36:21.818Z,65.22
2023-04-07T20:38:50.043Z,65.67
2023-04-07T20:41:18.346Z,65.79
2023-04-07T20:43:46.400Z,65.02
2023-04-07T20:46:14.537Z,66.66
2023-04-07T20:48:42.689Z,66.38
2023-04-07T20:51:11.352Z,66.40
2023-04-07T20:53:39.467Z,66.66
2023-04-07T20:56:07.653Z,65.95
2023-04-07T20:58:36.387Z,65.76
2023-04-07T21:01:04.857Z,65.96
2023-04-07T21:03:32.965Z,65.58
2023-04-07T21:06:01.505Z,65.37
2023-04-07T21:08:29.571Z,64.74
2023-04-07T21:10:57.534Z,64.88
2023-04-07T21:13:27.412Z,65.81
2023-04-07T21:15:57.568Z,65.95
2023-04-07T21:18:27.423Z,66.21
2023-04-07T21:20:57.899Z,66.34
2023-04-07T21:23:26.306Z,65.47
2023-04-07T21:25:54.418Z,67.38
2023-04-07T21:28:22.528Z,66.68
2023-04-07T21:30:53.441Z,66.59
2023-04-07T21:33:21.970Z,66.92
2023-04-07T21:35:51.329Z,66.54
2023-04-07T21:38:19.473Z,66.63
2023-04-07T21:40:47.542Z,66.75
2023-04-07T21:43:15.468Z,66.71
2023-04-07T21:45:43.716Z,67.00
2023-04-07T21:48:12.249Z,67.37
2023-04-07T21:50:40.535Z,66.77
2023-04-07T21:53:10.358Z,67.02
2023-04-07T21:55:38.413Z,66.85
2023-04-07T21:58:06.341Z,67.23
2023-04-07T22:00:34.465Z,66.76
2023-04-07T22:03:02.784Z,67.14
2023-04-07T22:05:31.336Z,66.80
2023-04-07T22:07:59.415Z,66.69
2023-04-07T22:10:27.422Z,67.07
2023-04-07T22:12:55.308Z,66.88
2023-04-07T22:15:23.670Z,67.00
2023-04-07T22:17:51.626Z,66.71
2023-04-07T22:20:19.785Z,65.82
2023-04-07T22:22:47.734Z,66.41
2023-04-07T22:25:16.052Z,66.13
2023-04-07T22:27:43.927Z,66.75
2023-04-07T22:30:12.053Z,66.92
2023-04-07T22:32:41.640Z,67.12
2023-04-07T22:35:10.343Z,67.04
2023-04-07T22:37:38.283Z,67.05
2023-04-07T22:40:06.948Z,67.06
2023-04-07T22:42:35.247Z,67.51
2023-04-07T22:45:03.465Z,67.56
2023-04-07T22:47:31.897Z,67.92
2023-04-07T22:49:59.868Z,67.87
2023-04-07T22:52:27.815Z,67.78
2023-04-07T22:54:58.010Z,68.01
2023-04-07T22:57:26.556Z,68.30
2023-04-07T22:59:54.767Z,67.84
2023-04-07T23:02:23.152Z,68.17
2023-04-07T23:04:51.519Z,68.24
2023-04-07T23:07:19.524Z,68.32
2023-04-07T23:09:47.365Z,68.38
2023-04-07T23:12:15.185Z,68.34
2023-04-07T23:14:43.133Z,68.51
2023-04-07T23:17:11.231Z,68.14
2023-04-07T23:19:39.123Z,68.42
2023-04-07T23:22:07.206Z,68.18
2023-04-07T23:24:35.014Z,68.39
2023-04-07T23:27:02.989Z,67.82
2023-04-07T23:29:31.838Z,68.35
2023-04-07T23:31:59.932Z,68.96
2023-04-07T23:34:28.068Z,68.62
2023-04-07T23:36:55.976Z,70.03
2023-04-07T23:39:23.879Z,70.95
2023-04-07T23:41:52.510Z,71.11
2023-04-07T23:44:20.896Z,71.69
2023-04-07T23:46:48.807Z,71.67
2023-04-07T23:49:17.135Z,71.50
2023-04-07T23:51:45.110Z,71.48
2023-04-07T23:54:13.081Z,71.97
2023-04-07T23:56:41.063Z,72.18
2023-04-07T23:59:09.059Z,71.82
